Time;durP1;ratioP1;P1;durP2;ratioP2;P2;SDS_P1;SDS_P2;PMS_P1;PMS_P2;Temp;Humidity;BMP_temperature;BMP_pressure;BME280_temperature;BME280_humidity;BME280_pressure;Samples;Min_cycle;Max_cycle;Signal;HPM_P1;HPM_P2
2021/06/24 00:00:45;;;;;;;10.65;5.30;;;;;;;15.67;92.99;101131.03;5071459;28;20044;-67
2021/06/24 00:03:11;;;;;;;5.97;4.70;;;;;;;15.65;93.11;101132.94;5071607;28;20460;-67
2021/06/24 00:05:38;;;;;;;;;;;;;;;15.60;93.64;101140.28;5072438;28;20113;-67
2021/06/24 00:08:07;;;;;;;;;;;;;;;15.61;92.97;101142.78;5072414;28;19920;-66
2021/06/24 00:10:34;;;;;;;6.70;5.28;;;;;;;15.63;93.33;101134.81;5071755;28;20409;-67
2021/06/24 00:13:01;;;;;;;6.13;4.70;;;;;;;15.79;92.57;101137.22;5071843;28;20048;-67
2021/06/24 00:15:28;;;;;;;8.10;5.07;;;;;;;15.84;92.28;101129.84;5071514;28;20053;-67
2021/06/24 00:17:54;;;;;;;;;;;;;;;15.67;92.83;101126.63;5072461;28;20045;-67
2021/06/24 00:20:21;;;;;;;;;;;;;;;15.65;93.18;101131.13;5071856;28;20378;-66
2021/06/24 00:22:48;;;;;;;10.77;5.30;;;;;;;15.55;93.56;101130.09;5071760;28;20378;-67
2021/06/24 00:25:16;;;;;;;7.57;5.05;;;;;;;15.65;93.17;101133.75;5071466;28;20514;-67
2021/06/24 00:27:43;;;;;;;7.18;4.95;;;;;;;15.62;93.03;101130.53;5071851;28;20229;-67
2021/06/24 00:30:12;;;;;;;6.00;5.25;;;;;;;15.51;93.25;101127.78;5071432;28;20064;-67
2021/06/24 00:32:39;;;;;;;8.90;5.00;;;;;;;15.64;92.66;101133.84;5071934;28;20055;-67
2021/06/24 00:35:07;;;;;;;6.95;5.40;;;;;;;15.60;92.75;101127.16;5071472;28;20099;-66
2021/06/24 00:37:35;;;;;;;7.25;5.00;;;;;;;15.43;93.75;101131.78;5071783;28;20049;-67
2021/06/24 00:40:02;;;;;;;11.93;5.32;;;;;;;15.54;93.06;101136.31;5071576;28;20053;-67
2021/06/24 00:42:31;;;;;;;5.97;4.80;;;;;;;15.67;93.06;101138.91;5071997;28;20051;-67
2021/06/24 00:44:58;;;;;;;6.88;5.05;;;;;;;15.63;93.11;101133.03;5071456;28;20049;-67
2021/06/24 00:47:25;;;;;;;;;;;;;;;15.68;92.73;101135.31;5071695;28;20056;-67
2021/06/24 00:49:51;;;;;;;6.40;5.40;;;;;;;15.44;93.36;101148.38;5071724;28;19927;-67
2021/06/24 00:52:18;;;;;;;6.25;5.40;;;;;;;15.49;93.43;101148.03;5071686;28;20056;-66
2021/06/24 00:54:45;;;;;;;11.00;5.55;;;;;;;15.46;93.31;101144.72;5071691;28;20048;-66
2021/06/24 00:57:12;;;;;;;;;;;;;;;15.23;94.65;101145.41;5071845;28;20525;-67
2021/06/24 00:59:40;;;;;;;9.50;5.22;;;;;;;15.40;93.72;101154.78;5071325;28;20492;-67
2021/06/24 01:02:07;;;;;;;6.95;4.70;;;;;;;15.46;93.02;101156.94;5071105;28;20526;-67
2021/06/24 01:04:35;;;;;;;7.07;4.95;;;;;;;15.42;92.89;101155.50;5071468;28;20075;-67
2021/06/24 01:07:03;;;;;;;10.65;4.93;;;;;;;15.46;92.97;101157.81;5071626;28;20059;-66
2021/06/24 01:09:30;;;;;;;6.10;4.88;;;;;;;15.54;92.32;101159.91;5071625;28;20061;-67
2021/06/24 01:11:57;;;;;;;6.78;5.07;;;;;;;15.47;92.31;101153.41;5071271;28;20439;-67
2021/06/24 01:14:25;;;;;;;7.20;5.20;;;;;;;15.33;93.09;101156.13;5074737;28;20064;-66
2021/06/24 01:16:53;;;;;;;9.68;5.28;;;;;;;15.38;92.58;101161.88;5075117;28;20055;-67
2021/06/24 01:19:20;;;;;;;9.05;5.32;;;;;;;15.30;92.83;101159.78;5074684;28;20049;-67
2021/06/24 01:21:47;;;;;;;11.23;6.40;;;;;;;15.37;92.46;101163.69;5074990;28;20059;-67
2021/06/24 01:24:16;;;;;;;7.00;5.47;;;;;;;15.37;92.86;101170.72;5074328;28;20063;-67
2021/06/24 01:26:43;;;;;;;11.27;5.63;;;;;;;15.23;93.32;101174.25;5074891;28;20052;-67
2021/06/24 01:29:10;;;;;;;9.35;6.28;;;;;;;15.10;94.34;101169.00;5074837;28;20049;-66
2021/06/24 01:31:38;;;;;;;9.30;5.57;;;;;;;15.32;92.85;101165.78;5074781;28;20076;-66
2021/06/24 01:34:06;;;;;;;9.10;5.13;;;;;;;15.29;92.57;101176.47;5074508;28;20049;-67
2021/06/24 01:36:33;;;;;;;10.65;4.78;;;;;;;15.39;92.15;101174.91;5074684;28;20049;-67
2021/06/24 01:39:00;;;;;;;8.30;5.50;;;;;;;15.31;92.48;101173.75;5074210;28;20491;-67
2021/06/24 01:41:28;;;;;;;;;;;;;;;15.19;93.15;101173.63;5074547;28;20443;-66
2021/06/24 01:43:55;;;;;;;7.05;5.05;;;;;;;15.18;92.88;101177.22;5074265;28;19920;-67
2021/06/24 01:46:22;;;;;;;7.65;5.40;;;;;;;15.21;92.99;101176.16;5074108;28;20055;-66
2021/06/24 01:48:48;;;;;;;10.00;5.65;;;;;;;15.27;92.85;101174.91;5074065;28;20056;-67
2021/06/24 01:51:15;;;;;;;9.57;6.40;;;;;;;15.28;92.67;101172.16;5073973;28;20045;-66
2021/06/24 01:53:43;;;;;;;;;;;;;;;15.20;92.92;101171.84;5074830;28;20052;-66
2021/06/24 01:56:10;;;;;;;7.70;5.20;;;;;;;15.26;92.41;101171.44;5073677;28;19920;-66
2021/06/24 01:58:38;;;;;;;;;;;;;;;15.17;92.93;101167.66;5074706;28;20041;-67
2021/06/24 02:01:05;;;;;;;9.65;6.05;;;;;;;15.19;92.66;101173.63;5073694;28;19931;-66
2021/06/24 02:03:35;;;;;;;9.35;5.68;;;;;;;15.26;92.20;101171.44;5074228;28;20048;-66
2021/06/24 02:06:03;;;;;;;14.23;6.45;;;;;;;15.15;92.88;101174.78;5074170;28;20051;-67
2021/06/24 02:08:30;;;;;;;8.70;6.07;;;;;;;15.05;93.38;101173.72;5074030;28;20131;-66
2021/06/24 02:10:59;;;;;;;8.98;5.75;;;;;;;14.94;94.08;101178.84;5074066;28;20072;-66
2021/06/24 02:13:27;;;;;;;12.02;6.65;;;;;;;14.94;93.77;101177.06;5073409;28;20055;-66
2021/06/24 02:15:56;;;;;;;6.90;5.22;;;;;;;15.11;93.17;101173.31;5073956;28;20068;-66
2021/06/24 02:18:23;;;;;;;11.60;6.30;;;;;;;15.05;93.67;101178.97;5073220;28;20056;-67
2021/06/24 02:20:49;;;;;;;7.93;6.03;;;;;;;14.90;94.67;101172.13;5073885;28;20052;-67
2021/06/24 02:23:16;;;;;;;10.40;6.40;;;;;;;14.91;94.61;101179.06;5073211;28;20075;-67
2021/06/24 02:25:43;;;;;;;9.35;7.10;;;;;;;14.98;94.29;101185.56;5073602;28;20053;-67
2021/06/24 02:28:10;;;;;;;;;;;;;;;15.10;93.29;101186.50;5073554;28;20410;-67
2021/06/24 02:30:37;;;;;;;;;;;;;;;15.14;92.95;101180.13;5073993;28;19928;-67
2021/06/24 02:33:08;;;;;;;10.45;5.95;;;;;;;15.26;92.37;101176.69;5073211;28;19920;-67
2021/06/24 02:35:35;;;;;;;8.48;6.15;;;;;;;15.34;91.67;101173.56;5073356;28;20506;-67
2021/06/24 02:38:03;;;;;;;10.10;6.63;;;;;;;15.23;92.41;101176.88;5073714;28;20098;-66
2021/06/24 02:40:30;;;;;;;8.75;5.80;;;;;;;15.20;92.61;101175.31;5073607;28;20049;-67
2021/06/24 02:42:57;;;;;;;;;;;;;;;15.33;91.92;101177.09;5074100;28;20052;-66
2021/06/24 02:45:24;;;;;;;8.60;6.30;;;;;;;15.19;92.70;101178.88;5072613;28;20023;-66
2021/06/24 02:47:51;;;;;;;8.82;6.28;;;;;;;15.18;92.99;101192.06;5073069;28;20076;-66
2021/06/24 02:50:19;;;;;;;;;;;;;;;14.95;93.73;101180.50;5073103;28;20044;-66
2021/06/24 02:52:46;;;;;;;9.75;6.15;;;;;;;14.97;93.92;101184.72;5073208;28;20314;-67
2021/06/24 02:55:13;;;;;;;10.57;5.72;;;;;;;15.03;93.73;101173.84;5072925;28;20055;-66
2021/06/24 02:57:41;;;;;;;10.70;5.78;;;;;;;15.13;92.92;101181.06;5072827;28;20059;-66
2021/06/24 03:00:09;;;;;;;11.50;7.15;;;;;;;15.22;92.33;101183.06;5072328;28;20495;-66
2021/06/24 03:02:36;;;;;;;9.23;6.32;;;;;;;15.18;92.47;101185.06;5072651;28;20059;-66
2021/06/24 03:05:04;;;;;;;10.27;5.97;;;;;;;15.19;92.66;101181.50;5072966;28;20059;-66
2021/06/24 03:07:32;;;;;;;10.07;5.88;;;;;;;15.40;91.69;101179.19;5072490;28;20049;-66
2021/06/24 03:09:59;;;;;;;7.35;5.82;;;;;;;15.34;92.14;101179.63;5072586;28;20060;-67
2021/06/24 03:12:26;;;;;;;7.72;5.93;;;;;;;15.44;92.13;101179.84;5072646;28;20064;-66
2021/06/24 03:14:53;;;;;;;8.45;6.13;;;;;;;15.36;92.40;101190.84;5072861;28;20052;-66
2021/06/24 03:17:19;;;;;;;10.32;6.35;;;;;;;15.32;92.89;101189.38;5072251;28;20055;-66
2021/06/24 03:19:46;;;;;;;8.73;6.10;;;;;;;15.22;92.70;101194.41;5072667;28;20053;-66
2021/06/24 03:22:13;;;;;;;10.43;5.97;;;;;;;15.26;93.24;101192.41;5072016;28;20052;-66
2021/06/24 03:24:41;;;;;;;8.27;5.30;;;;;;;15.42;92.28;101198.28;5072682;28;20052;-66
2021/06/24 03:27:08;;;;;;;8.95;5.43;;;;;;;15.35;92.45;101199.66;5072430;28;20071;-67
2021/06/24 03:29:35;;;;;;;10.85;5.45;;;;;;;15.43;91.40;101199.97;5072347;28;20531;-66
2021/06/24 03:32:01;;;;;;;;;;;;;;;15.29;92.60;101207.94;5073017;28;20048;-67
2021/06/24 03:34:28;;;;;;;8.05;5.63;;;;;;;15.38;92.28;101204.69;5072203;28;19920;-66
2021/06/24 03:36:55;;;;;;;8.20;4.85;;;;;;;15.34;92.26;101203.22;5071759;28;20396;-66
2021/06/24 03:39:22;;;;;;;7.70;5.57;;;;;;;15.29;92.58;101214.97;5071863;28;20051;-67
2021/06/24 03:41:50;;;;;;;;;;;;;;;15.17;93.50;101206.13;5072914;28;20048;-67
2021/06/24 03:44:17;;;;;;;7.45;5.90;;;;;;;15.20;93.03;101204.13;5072108;28;19920;-66
2021/06/24 03:46:44;;;;;;;13.27;6.07;;;;;;;15.12;93.28;101210.84;5072531;28;20060;-66
2021/06/24 03:49:11;;;;;;;11.90;6.47;;;;;;;15.16;92.97;101207.09;5071785;28;20056;-66
2021/06/24 03:51:38;;;;;;;11.25;6.47;;;;;;;15.28;92.51;101208.88;5072759;28;20075;-66
2021/06/24 03:54:05;;;;;;;9.68;5.95;;;;;;;15.39;92.06;101213.41;5071793;28;20495;-66
2021/06/24 03:56:32;;;;;;;11.20;6.40;;;;;;;15.20;92.64;101209.38;5072202;28;20052;-66
2021/06/24 03:59:00;;;;;;;11.98;5.93;;;;;;;15.34;92.16;101213.72;5071939;28;20041;-66
2021/06/24 04:01:27;;;;;;;8.82;6.32;;;;;;;15.15;93.23;101218.50;5071572;28;20045;-66
2021/06/24 04:03:54;;;;;;;;;;;;;;;15.18;93.37;101224.38;5072617;28;20049;-66
2021/06/24 04:06:20;;;;;;;10.98;5.80;;;;;;;15.27;92.92;101225.53;5072060;28;19928;-67
2021/06/24 04:08:47;;;;;;;10.70;6.03;;;;;;;15.29;92.64;101225.47;5072033;28;20048;-67
2021/06/24 04:11:14;;;;;;;11.48;5.53;;;;;;;15.31;92.19;101236.66;5071934;28;20048;-66
2021/06/24 04:13:41;;;;;;;9.48;5.80;;;;;;;15.22;92.76;101240.75;5072120;28;20048;-67
2021/06/24 04:16:09;;;;;;;;;;;;;;;15.28;92.41;101239.47;5072001;28;20502;-67
2021/06/24 04:18:36;;;;;;;6.43;4.82;;;;;;;15.40;91.26;101242.13;5071825;28;19925;-66
2021/06/24 04:21:04;;;;;;;12.25;5.60;;;;;;;15.14;93.08;101241.25;5071649;28;20051;-67
2021/06/24 04:23:31;;;;;;;6.97;4.72;;;;;;;15.36;91.11;101248.53;5071943;28;20044;-67
2021/06/24 04:25:58;;;;;;;7.03;5.13;;;;;;;15.42;90.46;101248.09;5071641;28;20384;-67
2021/06/24 04:28:24;;;;;;;;;;;;;;;15.34;90.46;101253.03;5072203;28;20060;-67
2021/06/24 04:30:51;;;;;;;;;;;;;;;15.21;90.69;101266.13;5072411;28;19927;-67
2021/06/24 04:33:19;;;;;;;8.88;4.63;;;;;;;14.95;91.63;101270.47;5071833;28;19921;-67
2021/06/24 04:35:46;;;;;;;11.93;4.43;;;;;;;14.79;92.49;101272.38;5071912;28;20052;-67
2021/06/24 04:38:14;;;;;;;8.25;4.20;;;;;;;14.77;92.44;101269.88;5071346;28;20411;-67
2021/06/24 04:40:41;;;;;;;8.35;4.68;;;;;;;14.78;92.61;101271.53;5071778;28;20075;-67
2021/06/24 04:43:08;;;;;;;7.30;4.40;;;;;;;14.87;92.26;101277.94;5071516;28;20056;-66
2021/06/24 04:45:35;;;;;;;5.25;4.30;;;;;;;14.78;92.59;101279.41;5071545;28;20654;-67
2021/06/24 04:48:02;;;;;;;6.53;4.75;;;;;;;14.80;91.91;101276.69;5074604;28;20495;-67
2021/06/24 04:50:30;;;;;;;9.40;4.60;;;;;;;14.88;91.89;101279.66;5075281;28;20049;-67
2021/06/24 04:52:57;;;;;;;7.88;5.05;;;;;;;14.77;92.48;101282.09;5075409;28;20049;-67
2021/06/24 04:55:24;;;;;;;6.57;4.70;;;;;;;14.83;91.31;101289.59;5075128;28;20055;-67
2021/06/24 04:57:51;;;;;;;7.45;4.88;;;;;;;14.86;91.15;101285.94;5075594;28;20060;-67
2021/06/24 05:00:18;;;;;;;9.50;5.05;;;;;;;14.80;90.98;101290.63;5074622;28;20052;-67
2021/06/24 05:02:45;;;;;;;6.88;4.50;;;;;;;14.86;90.63;101291.16;5075219;28;20048;-67
2021/06/24 05:05:12;;;;;;;5.90;4.53;;;;;;;14.89;91.00;101297.03;5074718;28;20049;-67
2021/06/24 05:07:40;;;;;;;6.63;4.57;;;;;;;14.84;91.21;101298.28;5074861;28;20071;-67
2021/06/24 05:10:08;;;;;;;7.13;4.32;;;;;;;14.80;90.75;101306.34;5074878;28;20044;-68
2021/06/24 05:12:35;;;;;;;6.03;4.07;;;;;;;14.72;91.17;101307.75;5075184;28;20055;-67
2021/06/24 05:15:02;;;;;;;10.27;4.72;;;;;;;14.83;90.92;101304.47;5075013;28;20052;-67
2021/06/24 05:17:30;;;;;;;7.25;4.05;;;;;;;14.86;90.77;101315.59;5075102;28;20048;-67
2021/06/24 05:19:58;;;;;;;6.93;4.30;;;;;;;14.92;90.72;101315.19;5074946;28;20059;-67
2021/06/24 05:22:25;;;;;;;6.72;4.88;;;;;;;14.80;91.39;101315.97;5074711;28;20068;-67
2021/06/24 05:24:53;;;;;;;11.32;5.05;;;;;;;15.04;90.23;101313.56;5074826;28;20045;-67
2021/06/24 05:27:20;;;;;;;7.22;4.70;;;;;;;14.94;90.56;101315.09;5074312;28;20044;-67
2021/06/24 05:29:47;;;;;;;6.40;4.93;;;;;;;14.80;91.67;101315.97;5074569;28;20518;-68
2021/06/24 05:32:14;;;;;;;7.15;4.68;;;;;;;15.05;91.05;101314.38;5074278;28;20048;-67
2021/06/24 05:34:41;;;;;;;6.35;4.50;;;;;;;15.43;87.87;101320.56;5074457;28;20529;-67
2021/06/24 05:37:07;;;;;;;6.22;4.50;;;;;;;15.49;87.88;101324.59;5074162;28;20056;-67
2021/06/24 05:39:34;;;;;;;5.18;4.68;;;;;;;15.45;88.27;101320.47;5074544;28;20051;-67
2021/06/24 05:42:03;;;;;;;;;;;;;;;15.55;87.68;101326.78;5074809;28;20050;-67
2021/06/24 05:44:29;;;;;;;6.47;4.30;;;;;;;15.59;86.91;101327.41;5074272;28;20381;-67
2021/06/24 05:46:56;;;;;;;;;;;;;;;15.61;87.44;101334.25;5074816;28;20052;-67
2021/06/24 05:49:23;;;;;;;;;;;;;;;15.79;85.58;101341.84;5074181;28;19920;-66
2021/06/24 05:51:50;;;;;;;5.90;4.85;;;;;;;15.81;85.26;101329.47;5074396;28;19932;-66
2021/06/24 05:54:17;;;;;;;4.80;4.03;;;;;;;15.94;85.15;101332.09;5074084;28;20056;-66
2021/06/24 05:56:44;;;;;;;7.63;4.68;;;;;;;15.98;86.87;101331.81;5074396;28;20048;-67
2021/06/24 05:59:12;;;;;;;;;;;;;;;16.29;83.78;101330.50;5073479;28;20498;-66
2021/06/24 06:01:42;;;;;;;4.40;3.53;;;;;;;16.14;84.40;101341.25;5074024;28;19938;-66
2021/06/24 06:04:09;;;;;;;5.43;3.72;;;;;;;16.25;83.87;101338.69;5073870;28;20056;-66
2021/06/24 06:06:36;;;;;;;5.22;4.00;;;;;;;16.17;85.24;101341.84;5073898;28;20063;-66
2021/06/24 06:09:03;;;;;;;7.95;4.50;;;;;;;16.02;86.12;101343.75;5074017;28;20044;-66
2021/06/24 06:11:29;;;;;;;;;;;;;;;16.25;83.62;101342.16;5074082;28;20044;-66
2021/06/24 06:13:56;;;;;;;;;;;;;;;16.38;82.29;101338.69;5074465;28;19942;-67
2021/06/24 06:16:24;;;;;;;;;;;;;;;16.31;83.64;101343.50;5074116;28;19927;-66
2021/06/24 06:18:52;;;;;;;4.57;3.85;;;;;;;16.51;83.58;101356.09;5073839;28;19927;-66
2021/06/24 06:21:20;;;;;;;6.82;4.32;;;;;;;16.79;81.45;101354.16;5073402;28;20486;-66
2021/06/24 06:23:47;;;;;;;7.47;3.90;;;;;;;17.13;81.32;101359.59;5073376;28;20140;-67
2021/06/24 06:26:14;;;;;;;4.38;3.97;;;;;;;16.84;82.19;101359.94;5073676;28;20048;-66
2021/06/24 06:28:40;;;;;;;;;;;;;;;17.29;78.29;101361.94;5074268;28;20049;-67
2021/06/24 06:31:07;;;;;;;5.97;3.67;;;;;;;17.41;78.65;101356.63;5073451;28;19920;-66
2021/06/24 06:33:35;;;;;;;5.22;4.00;;;;;;;17.46;79.20;101358.91;5073422;28;20048;-66
2021/06/24 06:36:02;;;;;;;7.72;4.43;;;;;;;17.29;80.16;101362.81;5073498;28;20059;-66
2021/06/24 06:38:29;;;;;;;4.97;4.00;;;;;;;17.08;79.76;101365.19;5073566;28;20053;-66
2021/06/24 06:40:56;;;;;;;6.15;3.70;;;;;;;17.32;78.02;101362.56;5073123;28;20513;-66
2021/06/24 06:43:22;;;;;;;;;;;;;;;17.19;78.46;101369.69;5073075;28;20506;-66
2021/06/24 06:45:49;;;;;;;;;;;;;;;17.34;79.73;101362.44;5073754;28;19927;-66
2021/06/24 06:48:16;;;;;;;;;;;;;;;17.25;78.58;101371.88;5073244;28;19927;-66
2021/06/24 06:50:45;;;;;;;5.90;4.10;;;;;;;17.24;78.73;101361.44;5073018;28;19931;-66
2021/06/24 06:53:12;;;;;;;5.60;3.78;;;;;;;17.42;77.50;101366.19;5072903;28;20059;-67
2021/06/24 06:55:40;;;;;;;5.35;3.90;;;;;;;17.25;79.58;101373.66;5072977;28;20044;-66
2021/06/24 06:58:07;;;;;;;8.10;3.85;;;;;;;17.56;78.52;101367.78;5072837;28;20055;-66
2021/06/24 07:00:34;;;;;;;8.48;3.88;;;;;;;17.32;78.88;101370.47;5072973;28;20048;-66
2021/06/24 07:03:02;;;;;;;3.80;3.40;;;;;;;17.28;78.11;101374.25;5072629;28;20063;-66
2021/06/24 07:05:29;;;;;;;4.03;3.30;;;;;;;17.46;77.75;101379.13;5072307;28;20044;-66
2021/06/24 07:07:58;;;;;;;4.15;3.63;;;;;;;17.23;79.79;101370.28;5072592;28;20053;-67
2021/06/24 07:10:25;;;;;;;3.40;3.10;;;;;;;17.86;74.55;101386.72;5071860;28;20055;-67
2021/06/24 07:12:52;;;;;;;3.75;3.08;;;;;;;18.04;74.54;101378.25;5072772;28;20053;-67
2021/06/24 07:15:19;;;;;;;13.10;3.20;;;;;;;18.06;74.34;101376.34;5072557;28;20063;-67
2021/06/24 07:17:46;;;;;;;;;;;;;;;18.36;73.62;101380.16;5072795;28;20053;-67
2021/06/24 07:20:13;;;;;;;;;;;;;;;18.41;72.58;101378.00;5072540;28;19920;-67
2021/06/24 07:22:40;;;;;;;3.15;2.85;;;;;;;17.61;74.96;101380.63;5072360;28;19927;-67
2021/06/24 07:25:13;;;;;;;3.67;2.70;;;;;;;18.60;73.02;101379.19;5072403;28;20048;-67
2021/06/24 07:27:40;;;;;;;5.47;3.08;;;;;;;18.78;70.84;101382.19;5072579;28;20494;-67
2021/06/24 07:30:08;;;;;;;3.42;2.90;;;;;;;18.71;73.03;101376.56;5072033;28;20052;-67
2021/06/24 07:32:35;;;;;;;3.50;2.90;;;;;;;19.33;69.55;101383.84;5072124;28;20620;-67
2021/06/24 07:35:02;;;;;;;3.30;2.92;;;;;;;20.01;67.02;101383.50;5072213;28;20059;-67
2021/06/24 07:37:29;;;;;;;;;;;;;;;18.93;69.35;101375.69;5072484;28;20048;-67
2021/06/24 07:39:56;;;;;;;3.95;2.63;;;;;;;19.69;65.82;101368.59;5072336;28;19924;-66
2021/06/24 07:42:24;;;;;;;;;;;;;;;20.46;64.52;101367.31;5072474;28;20044;-67
2021/06/24 07:44:50;;;;;;;2.50;2.30;;;;;;;20.71;62.67;101373.97;5072406;28;19926;-66
2021/06/24 07:47:18;;;;;;;;;;;;;;;20.66;63.91;101366.44;5072054;28;20491;-68
2021/06/24 07:49:47;;;;;;;6.00;2.10;;;;;;;19.15;68.87;101372.19;5072006;28;20346;-67
2021/06/24 07:52:14;;;;;;;2.40;2.00;;;;;;;18.90;68.75;101365.41;5071672;28;20052;-66
2021/06/24 07:54:41;;;;;;;5.38;2.58;;;;;;;18.72;70.59;101365.03;5071978;28;20053;-67
2021/06/24 07:57:08;;;;;;;3.13;2.40;;;;;;;19.11;69.18;101370.72;5072068;28;20056;-67
2021/06/24 07:59:37;;;;;;;5.63;3.15;;;;;;;20.21;67.80;101364.16;5072250;28;20056;-67
2021/06/24 08:02:05;;;;;;;6.05;3.10;;;;;;;20.62;63.66;101359.75;5071627;28;20503;-67
2021/06/24 08:04:32;;;;;;;2.85;2.35;;;;;;;21.13;62.85;101365.00;5072059;28;20049;-66
2021/06/24 08:06:59;;;;;;;5.38;2.50;;;;;;;20.45;66.65;101366.50;5072190;28;20060;-67
2021/06/24 08:09:26;;;;;;;2.45;2.25;;;;;;;21.24;62.27;101368.31;5071914;28;20048;-66
2021/06/24 08:11:53;;;;;;;3.50;2.47;;;;;;;22.15;60.43;101366.13;5071810;28;20045;-67
2021/06/24 08:14:21;;;;;;;2.58;2.25;;;;;;;22.54;56.66;101371.28;5071509;28;20057;-68
2021/06/24 08:16:49;;;;;;;2.65;2.33;;;;;;;22.86;55.65;101371.81;5071697;28;20457;-68
2021/06/24 08:19:16;;;;;;;3.45;2.17;;;;;;;23.78;55.37;101376.81;5071624;28;20500;-67
2021/06/24 08:21:43;;;;;;;3.00;2.00;;;;;;;25.36;52.40;101380.78;5073148;28;20072;-68
2021/06/24 08:24:10;;;;;;;4.57;2.00;;;;;;;25.72;50.30;101375.94;5075832;28;20048;-68
2021/06/24 08:26:37;;;;;;;4.20;2.05;;;;;;;24.99;50.04;101379.38;5075926;28;20044;-67
2021/06/24 08:29:04;;;;;;;3.92;2.28;;;;;;;24.59;54.15;101380.94;5075934;28;20071;-67
2021/06/24 08:31:31;;;;;;;4.97;2.72;;;;;;;25.02;49.90;101373.72;5075560;28;20044;-67
2021/06/24 08:33:59;;;;;;;3.03;2.47;;;;;;;25.42;47.38;101382.78;5075610;28;20048;-67
2021/06/24 08:36:26;;;;;;;5.13;2.40;;;;;;;24.90;51.25;101381.19;5075512;28;20048;-67
2021/06/24 08:38:53;;;;;;;3.70;2.50;;;;;;;25.05;51.23;101389.38;5075872;28;20048;-67
2021/06/24 08:41:25;;;;;;;3.35;2.47;;;;;;;26.18;47.21;101394.03;5075548;28;20075;-67
2021/06/24 08:43:52;;;;;;;2.47;2.28;;;;;;;26.92;45.44;101400.72;5075433;28;20044;-67
2021/06/24 08:46:20;;;;;;;4.47;2.42;;;;;;;26.99;44.04;101398.16;5075354;28;20427;-67
2021/06/24 08:48:47;;;;;;;3.47;2.30;;;;;;;27.40;44.25;101399.75;5075148;28;20053;-67
2021/06/24 08:51:16;;;;;;;4.97;2.33;;;;;;;27.54;42.86;101413.16;5075026;28;20503;-67
2021/06/24 08:53:46;;;;;;;5.93;2.30;;;;;;;28.21;45.13;101417.72;5075713;28;20052;-68
2021/06/24 08:56:15;;;;;;;7.18;2.60;;;;;;;27.55;41.24;101412.13;5075033;28;20056;-67
2021/06/24 08:58:42;;;;;;;3.33;2.28;;;;;;;28.49;41.48;101416.22;5075043;28;20055;-67
2021/06/24 09:01:09;;;;;;;3.13;2.25;;;;;;;25.55;45.50;101411.56;5074758;28;20415;-67
2021/06/24 09:03:36;;;;;;;5.30;2.55;;;;;;;25.67;47.24;101409.41;5075277;28;20410;-67
2021/06/24 09:06:05;;;;;;;3.42;2.40;;;;;;;25.80;49.97;101420.41;5074892;28;20045;-67
2021/06/24 09:08:41;;;;;;;3.03;2.40;;;;;;;27.28;43.74;101420.69;5075199;28;20052;-67
2021/06/24 09:11:28;;;;;;;3.28;2.35;;;;;;;27.61;43.31;101420.44;5074921;28;20056;-68
2021/06/24 09:14:00;;;;;;;2.88;1.90;;;;;;;27.68;41.15;101429.41;5074915;28;20040;-67
2021/06/24 09:16:29;;;;;;;4.57;2.08;;;;;;;27.47;44.41;101419.41;5074866;28;20530;-68
2021/06/24 09:19:20;;;;;;;5.65;2.20;;;;;;;26.46;42.00;101416.59;5074768;28;20048;-67
2021/06/24 09:21:54;;;;;;;5.50;1.92;;;;;;;27.96;41.23;101419.00;5074890;28;20068;-67
2021/06/24 09:24:25;;;;;;;2.88;2.08;;;;;;;26.94;44.19;101417.38;5074783;28;20048;-67
2021/06/24 09:26:52;;;;;;;4.32;2.13;;;;;;;26.56;46.00;101428.91;5074517;28;20055;-67
2021/06/24 09:29:20;;;;;;;4.18;2.40;;;;;;;27.37;44.93;101422.31;5074294;28;20522;-67
2021/06/24 09:31:50;;;;;;;2.10;1.90;;;;;;;27.20;41.95;101428.78;5074466;28;20052;-67
2021/06/24 09:34:18;;;;;;;2.63;2.00;;;;;;;27.54;40.99;101428.34;5073447;28;20045;-68
2021/06/24 09:36:47;;;;;;;2.05;1.80;;;;;;;26.90;46.69;101431.28;5074707;28;20135;-67
2021/06/24 09:39:28;;;;;;;1.52;1.42;;;;;;;27.36;44.00;101439.38;5074379;28;20098;-67
2021/06/24 09:42:01;;;;;;;3.20;1.70;;;;;;;27.07;41.94;101438.16;5074309;28;20044;-66
2021/06/24 09:44:29;;;;;;;8.52;2.00;;;;;;;27.09;41.11;101430.81;5074319;28;20140;-67
2021/06/24 09:46:56;;;;;;;4.65;1.67;;;;;;;27.25;44.00;101435.25;5074495;28;20075;-67
2021/06/24 09:49:28;;;;;;;2.95;1.83;;;;;;;28.63;39.95;101431.47;5073818;28;20052;-67
2021/06/24 09:51:57;;;;;;;3.30;1.60;;;;;;;29.08;37.60;101429.50;5074473;28;20052;-67
2021/06/24 09:54:34;;;;;;;2.67;1.50;;;;;;;28.73;39.96;101431.16;5074209;28;20406;-67
2021/06/24 09:57:03;;;;;;;1.88;1.70;;;;;;;28.68;39.81;101442.44;5074418;28;20049;-68
2021/06/24 09:59:39;;;;;;;2.45;1.70;;;;;;;27.54;42.45;101428.34;5074179;28;20132;-67
2021/06/24 10:02:11;;;;;;;1.85;1.40;;;;;;;28.65;39.49;101427.56;5074070;28;20063;-67
2021/06/24 10:04:40;;;;;;;2.53;1.50;;;;;;;28.55;39.19;101426.22;5074364;28;20064;-67
2021/06/24 10:07:11;;;;;;;1.63;1.20;;;;;;;30.02;35.07;101423.97;5073897;28;20048;-67
2021/06/24 10:09:40;;;;;;;1.80;1.30;;;;;;;29.48;35.94;101414.66;5073750;28;20102;-67
2021/06/24 10:12:10;;;;;;;3.25;1.30;;;;;;;29.51;36.94;101410.75;5073899;28;20067;-67
2021/06/24 10:14:39;;;;;;;2.97;1.25;;;;;;;28.65;38.49;101426.75;5073991;28;20048;-67
2021/06/24 10:17:06;;;;;;;1.80;1.10;;;;;;;29.37;35.48;101425.91;5073634;28;20049;-68
2021/06/24 10:19:35;;;;;;;1.23;1.10;;;;;;;29.87;33.60;101418.69;5073846;28;20078;-68
2021/06/24 10:22:06;;;;;;;2.88;1.27;;;;;;;29.28;36.92;101425.19;5073708;28;20044;-67
2021/06/24 10:24:36;;;;;;;1.58;1.20;;;;;;;30.10;34.64;101425.66;5073572;28;20051;-67
2021/06/24 10:27:10;;;;;;;4.40;1.40;;;;;;;31.02;33.43;101432.50;5073720;28;20048;-68
2021/06/24 10:29:54;;;;;;;1.42;1.10;;;;;;;30.01;35.84;101426.84;5073454;28;20048;-68
2021/06/24 10:32:24;;;;;;;0.88;0.88;;;;;;;29.81;34.65;101435.56;5072993;28;20056;-67
2021/06/24 10:34:52;;;;;;;1.40;1.23;;;;;;;29.41;35.37;101440.56;5073655;28;20056;-68
2021/06/24 10:37:22;;;;;;;1.15;1.05;;;;;;;29.61;34.59;101439.91;5073000;28;20445;-68
2021/06/24 10:39:50;;;;;;;1.77;1.20;;;;;;;28.34;34.40;101429.63;5073254;28;20522;-67
2021/06/24 10:42:19;;;;;;;5.70;1.27;;;;;;;28.53;35.11;101428.25;5072707;28;20049;-68
2021/06/24 10:44:48;;;;;;;1.75;1.17;;;;;;;29.23;34.13;101440.19;5073291;28;20048;-67
2021/06/24 10:47:25;;;;;;;2.17;1.30;;;;;;;28.66;35.47;101442.59;5072588;28;20080;-67
2021/06/24 10:49:52;;;;;;;1.10;0.98;;;;;;;27.47;37.57;101433.59;5073362;28;20048;-67
2021/06/24 10:52:25;;;;;;;2.00;1.10;;;;;;;27.60;37.36;101440.19;5072666;28;20510;-68
2021/06/24 10:54:52;;;;;;;2.63;1.20;;;;;;;27.14;37.21;101432.97;5072803;28;20449;-68
2021/06/24 10:57:34;;;;;;;1.10;0.95;;;;;;;28.77;34.43;101438.66;5072949;28;20098;-67
2021/06/24 11:00:35;;;;;;;2.33;1.30;;;;;;;28.37;35.44;101429.25;5072815;28;20048;-67
2021/06/24 11:03:04;;;;;;;1.65;1.25;;;;;;;30.49;31.78;101443.03;5072693;28;20406;-67
2021/06/24 11:05:36;;;;;;;3.03;1.05;;;;;;;29.13;34.18;101434.31;5073134;28;20052;-67
2021/06/24 11:08:10;;;;;;;1.30;1.10;;;;;;;29.59;34.53;101440.09;5072781;28;20053;-67
2021/06/24 11:10:54;;;;;;;4.28;1.20;;;;;;;29.47;35.96;101442.50;5072647;28;20076;-67
2021/06/24 11:13:48;;;;;;;2.33;0.90;;;;;;;29.01;35.13;101425.94;5072355;28;20102;-67
2021/06/24 11:16:31;;;;;;;5.03;0.80;;;;;;;30.75;31.93;101437.78;5058012;28;20102;-68
2021/06/24 11:19:01;;;;;;;3.70;0.90;;;;;;;30.47;31.57;101435.19;5072727;28;20059;-67
2021/06/24 11:21:53;;;;;;;2.83;0.82;;;;;;;32.28;28.31;101434.38;5072430;28;20055;-68
2021/06/24 11:24:25;;;;;;;3.65;0.80;;;;;;;31.93;29.20;101428.41;5072405;28;20052;-67
2021/06/24 11:26:54;;;;;;;3.33;0.80;;;;;;;31.16;31.73;101430.66;5072599;28;20055;-67
2021/06/24 11:29:29;;;;;;;2.40;0.85;;;;;;;31.72;30.52;101435.69;5072347;28;20056;-68
2021/06/24 11:32:01;;;;;;;3.22;0.80;;;;;;;30.74;29.82;101427.22;5072368;28;20056;-67
2021/06/24 11:34:37;;;;;;;1.60;0.60;;;;;;;32.52;29.48;101427.47;5072040;28;20089;-67
2021/06/24 11:37:06;;;;;;;4.15;0.73;;;;;;;33.55;29.21;101430.00;5072251;28;20055;-68